Time;durP1;ratioP1;P1;durP2;ratioP2;P2;SDS_P1;SDS_P2;PMS_P1;PMS_P2;Temp;Humidity;BMP_temperature;BMP_pressure;BME280_temperature;BME280_humidity;BME280_pressure;Samples;Min_cycle;Max_cycle;Signal;HPM_P1;HPM_P2
2022/03/26 00:00:07;;;;;;;5.30;4.10;;;17.20;39.40;;;;;;5074351;28;20400;-70
2022/03/26 00:02:33;;;;;;;5.25;3.22;;;17.20;39.40;;;;;;5074095;28;20040;-66
2022/03/26 00:04:58;;;;;;;4.43;3.00;;;17.20;39.40;;;;;;5074196;28;20434;-70
2022/03/26 00:07:24;;;;;;;4.03;3.63;;;17.20;39.40;;;;;;5072742;28;20045;-70
2022/03/26 00:09:49;;;;;;;4.47;3.58;;;17.10;39.30;;;;;;5072181;28;20051;-71
2022/03/26 00:12:15;;;;;;;4.78;3.72;;;17.10;39.30;;;;;;5072741;28;20045;-67
2022/03/26 00:14:41;;;;;;;4.40;3.50;;;17.10;40.20;;;;;;5073957;28;20162;-65
2022/03/26 00:17:06;;;;;;;5.60;3.90;;;17.10;39.40;;;;;;5072548;28;20032;-71
2022/03/26 00:19:32;;;;;;;7.13;4.32;;;17.10;39.40;;;;;;5072610;28;20040;-70
2022/03/26 00:21:57;;;;;;;4.07;3.35;;;17.10;39.40;;;;;;5071367;28;20053;-71
2022/03/26 00:24:23;;;;;;;5.28;3.70;;;17.10;39.40;;;;;;5073322;28;20048;-70
2022/03/26 00:26:49;;;;;;;4.75;3.70;;;17.10;39.40;;;;;;5055827;28;20124;-70
2022/03/26 00:29:15;;;;;;;4.32;3.63;;;17.10;39.40;;;;;;5073599;28;20094;-70
2022/03/26 00:31:40;;;;;;;7.60;3.90;;;17.10;39.40;;;;;;5055927;28;20072;-65
2022/03/26 00:34:08;;;;;;;5.10;3.35;;;17.00;39.30;;;;;;5073398;28;20389;-72
2022/03/26 00:36:34;;;;;;;4.60;3.63;;;17.00;39.40;;;;;;5055828;28;20037;-70
2022/03/26 00:39:00;;;;;;;5.18;3.85;;;17.00;39.30;;;;;;5055371;28;20450;-70
2022/03/26 00:41:29;;;;;;;5.75;3.80;;;17.00;39.30;;;;;;5055407;28;20037;-66
2022/03/26 00:43:55;;;;;;;6.55;3.75;;;17.00;39.40;;;;;;5073286;28;20435;-72
2022/03/26 00:46:22;;;;;;;4.50;3.90;;;17.00;39.40;;;;;;5055391;28;20041;-70
2022/03/26 00:48:48;;;;;;;5.32;3.55;;;17.00;39.40;;;;;;5073252;28;20471;-70
2022/03/26 00:51:17;;;;;;;4.60;3.83;;;17.00;39.40;;;;;;5073265;28;20037;-70
2022/03/26 00:53:44;;;;;;;6.22;4.13;;;16.90;39.30;;;;;;5055031;28;20044;-70
2022/03/26 00:56:10;;;;;;;3.92;3.30;;;16.90;39.40;;;;;;5055198;28;20101;-70
2022/03/26 00:58:35;;;;;;;7.95;4.82;;;16.90;39.40;;;;;;5055293;28;20044;-70
2022/03/26 01:01:01;;;;;;;4.78;4.05;;;16.90;39.40;;;;;;5072737;28;20131;-70
2022/03/26 01:03:27;;;;;;;8.40;4.30;;;16.90;39.40;;;;;;5072948;28;20036;-66
2022/03/26 01:05:52;;;;;;;5.47;4.28;;;16.90;39.40;;;;;;5054334;28;20040;-70
2022/03/26 01:08:18;;;;;;;5.07;4.60;;;16.90;39.40;;;;;;5054828;28;20469;-70
2022/03/26 01:10:47;;;;;;;5.40;4.10;;;16.80;39.40;;;;;;5072745;28;20040;-66
2022/03/26 01:13:14;;;;;;;4.80;4.05;;;16.80;39.40;;;;;;5054875;28;20472;-65
2022/03/26 01:15:40;;;;;;;5.05;4.18;;;16.80;39.40;;;;;;5054786;28;20119;-69
2022/03/26 01:18:06;;;;;;;5.20;3.80;;;16.80;39.40;;;;;;5072710;28;20167;-66
2022/03/26 01:20:32;;;;;;;5.03;3.97;;;16.80;39.40;;;;;;5054728;28;20055;-68
2022/03/26 01:22:59;;;;;;;6.63;5.15;;;16.80;39.50;;;;;;5072108;28;20091;-70
2022/03/26 01:25:25;;;;;;;5.53;4.25;;;16.80;40.30;;;;;;5072589;28;20047;-70
2022/03/26 01:27:51;;;;;;;6.90;3.88;;;16.80;39.50;;;;;;5054546;28;20032;-70
2022/03/26 01:30:17;;;;;;;6.20;4.10;;;16.70;39.40;;;;;;5054743;28;20087;-72
2022/03/26 01:32:44;;;;;;;4.72;4.20;;;16.70;39.40;;;;;;5054460;28;20048;-69
2022/03/26 01:35:11;;;;;;;8.25;4.93;;;16.70;40.20;;;;;;5054314;28;20094;-69
2022/03/26 01:37:37;;;;;;;5.18;4.38;;;16.70;39.40;;;;;;5054459;28;20120;-66
2022/03/26 01:40:05;;;;;;;5.05;4.35;;;16.70;39.50;;;;;;5054297;28;20515;-70
2022/03/26 01:42:32;;;;;;;5.30;4.75;;;16.70;39.50;;;;;;5072396;28;20053;-70
2022/03/26 01:44:58;;;;;;;5.88;4.38;;;16.70;39.50;;;;;;5054157;28;20098;-69
2022/03/26 01:47:23;;;;;;;6.00;4.97;;;16.70;39.50;;;;;;5072179;28;20044;-71
2022/03/26 01:49:51;;;;;;;4.53;4.10;;;16.60;39.50;;;;;;5054116;28;20477;-70
2022/03/26 01:52:17;;;;;;;5.88;4.70;;;16.60;39.50;;;;;;5072003;28;20062;-67
2022/03/26 01:54:43;;;;;;;5.05;4.55;;;16.60;39.50;;;;;;5054378;28;20109;-70
2022/03/26 01:57:10;;;;;;;6.95;4.57;;;16.60;39.50;;;;;;5054367;28;20044;-72
2022/03/26 01:59:38;;;;;;;6.47;5.13;;;16.60;39.50;;;;;;5054335;28;20048;-69
2022/03/26 02:02:05;;;;;;;6.07;4.75;;;16.60;39.50;;;;;;5053972;28;20530;-70
2022/03/26 02:04:31;;;;;;;5.88;4.85;;;16.60;39.50;;;;;;5053836;28;20037;-70
2022/03/26 02:06:56;;;;;;;5.95;4.65;;;16.60;39.50;;;;;;5054225;28;20041;-70
2022/03/26 02:09:25;;;;;;;6.13;4.70;;;16.60;39.60;;;;;;5054164;28;20033;-70
2022/03/26 02:11:51;;;;;;;5.70;5.00;;;16.50;39.50;;;;;;5072000;28;20519;-70
2022/03/26 02:14:16;;;;;;;5.60;4.45;;;16.50;39.50;;;;;;5054080;28;20120;-70
2022/03/26 02:16:43;;;;;;;5.15;4.65;;;16.50;39.60;;;;;;5071298;28;20571;-69
2022/03/26 02:19:09;;;;;;;5.50;4.63;;;16.60;39.60;;;;;;5054221;28;20480;-71
2022/03/26 02:21:37;;;;;;;5.35;4.63;;;16.50;39.60;;;;;;5052840;28;20438;-70
2022/03/26 02:24:05;;;;;;;7.18;4.70;;;16.50;39.60;;;;;;5071695;28;20040;-70
2022/03/26 02:26:31;;;;;;;5.20;4.70;;;16.50;39.60;;;;;;5071635;28;20037;-71
2022/03/26 02:29:04;;;;;;;5.32;4.75;;;16.40;39.60;;;;;;5053785;28;20112;-69
2022/03/26 02:31:30;;;;;;;6.25;5.00;;;16.40;39.60;;;;;;5053681;28;20036;-71
2022/03/26 02:33:55;;;;;;;7.07;4.93;;;16.40;39.60;;;;;;5071825;28;20082;-66
2022/03/26 02:36:21;;;;;;;5.55;4.97;;;16.40;39.60;;;;;;5054085;28;20502;-67
2022/03/26 02:38:47;;;;;;;6.07;5.28;;;16.40;39.60;;;;;;5053570;28;20399;-70
2022/03/26 02:41:12;;;;;;;6.18;5.47;;;16.40;40.30;;;;;;5053857;28;20040;-70
2022/03/26 02:43:38;;;;;;;5.43;4.93;;;16.40;39.60;;;;;;5071539;28;20044;-67
2022/03/26 02:46:04;;;;;;;5.82;4.90;;;16.40;39.60;;;;;;5053680;28;20068;-70
2022/03/26 02:48:30;;;;;;;8.07;6.25;;;16.40;39.60;;;;;;5053583;28;20123;-71
2022/03/26 02:50:56;;;;;;;6.75;5.22;;;16.30;39.60;;;;;;5053550;28;20044;-66
2022/03/26 02:53:22;;;;;;;7.57;6.28;;;16.30;39.60;;;;;;5071455;28;20428;-72
2022/03/26 02:55:52;;;;;;;9.15;7.00;;;16.30;39.60;;;;;;5071735;28;20037;-66
2022/03/26 02:58:18;;;;;;;6.25;5.63;;;16.30;39.60;;;;;;5053675;28;20119;-67
2022/03/26 03:00:44;;;;;;;7.68;6.47;;;16.30;39.60;;;;;;5053749;28;20533;-71
2022/03/26 03:03:10;;;;;;;10.88;7.03;;;16.30;39.60;;;;;;5053359;28;20499;-70
2022/03/26 03:05:35;;;;;;;11.30;8.02;;;16.30;39.70;;;;;;5053740;28;20484;-67
2022/03/26 03:08:02;;;;;;;8.43;6.97;;;16.20;39.70;;;;;;5053305;28;20062;-66
2022/03/26 03:10:28;;;;;;;7.40;6.28;;;16.20;39.70;;;;;;5071449;28;20039;-70
2022/03/26 03:12:54;;;;;;;9.38;6.85;;;16.20;39.70;;;;;;5053228;28;20491;-70
2022/03/26 03:15:20;;;;;;;9.52;8.10;;;16.20;39.80;;;;;;5053431;28;20047;-70
2022/03/26 03:17:50;;;;;;;8.98;7.47;;;16.20;39.80;;;;;;5053575;28;20188;-71
2022/03/26 03:20:16;;;;;;;8.83;7.27;;;16.20;39.80;;;;;;5053253;28;20045;-70
2022/03/26 03:22:42;;;;;;;10.63;7.78;;;16.20;39.80;;;;;;5070820;28;20306;-70
2022/03/26 03:25:09;;;;;;;11.02;7.75;;;16.20;39.80;;;;;;5053116;28;20055;-70
2022/03/26 03:27:35;;;;;;;9.38;7.95;;;16.20;39.80;;;;;;5053383;28;20041;-65
2022/03/26 03:30:05;;;;;;;9.15;7.35;;;16.20;39.80;;;;;;5073739;28;20455;-71
2022/03/26 03:32:30;;;;;;;9.20;7.90;;;16.10;39.80;;;;;;5056698;28;20040;-70
2022/03/26 03:34:56;;;;;;;12.10;7.80;;;16.10;39.80;;;;;;5056699;28;20046;-69
2022/03/26 03:37:24;;;;;;;10.60;8.55;;;16.10;39.80;;;;;;5056942;28;20106;-70
2022/03/26 03:39:50;;;;;;;10.10;7.68;;;16.10;39.80;;;;;;5056596;28;20049;-64
2022/03/26 03:42:16;;;;;;;10.45;8.40;;;16.10;39.80;;;;;;5056580;28;20480;-65
2022/03/26 03:44:42;;;;;;;9.70;8.57;;;16.10;39.80;;;;;;5056851;28;20036;-66
2022/03/26 03:47:07;;;;;;;10.07;8.75;;;16.10;39.80;;;;;;5056558;28;20040;-70
2022/03/26 03:49:35;;;;;;;11.10;8.90;;;16.10;39.80;;;;;;5074418;28;20043;-70
2022/03/26 03:52:01;;;;;;;10.05;8.40;;;16.10;39.80;;;;;;5056716;28;20128;-70
2022/03/26 03:54:27;;;;;;;10.98;8.77;;;16.10;39.80;;;;;;5056270;28;20098;-70
2022/03/26 03:56:53;;;;;;;10.13;9.05;;;16.10;39.80;;;;;;5056377;28;20072;-72
2022/03/26 03:59:19;;;;;;;11.77;9.57;;;16.10;39.80;;;;;;5074272;28;20033;-72
2022/03/26 04:01:44;;;;;;;12.73;9.60;;;16.00;39.80;;;;;;5056415;28;20563;-65
2022/03/26 04:04:10;;;;;;;10.98;9.25;;;16.00;39.80;;;;;;5074282;28;20028;-71
2022/03/26 04:06:36;;;;;;;12.98;9.73;;;16.00;39.90;;;;;;5074090;28;20048;-65
2022/03/26 04:09:02;;;;;;;10.77;9.43;;;16.00;39.90;;;;;;5073450;28;20131;-72
2022/03/26 04:11:28;;;;;;;13.30;10.20;;;16.00;39.80;;;;;;5056085;28;20119;-65
2022/03/26 04:13:54;;;;;;;10.75;9.35;;;15.90;39.80;;;;;;5056362;28;20048;-71
2022/03/26 04:16:20;;;;;;;13.00;9.32;;;16.00;39.90;;;;;;5055986;28;20075;-70
2022/03/26 04:18:46;;;;;;;11.57;9.80;;;16.00;39.90;;;;;;5073876;28;20047;-69
2022/03/26 04:21:12;;;;;;;12.38;9.88;;;15.90;39.90;;;;;;5073796;28;20040;-70
2022/03/26 04:23:37;;;;;;;11.30;10.07;;;15.90;39.90;;;;;;5073474;28;20053;-70
2022/03/26 04:26:03;;;;;;;11.07;9.98;;;15.90;39.90;;;;;;5055797;28;20040;-70
2022/03/26 04:28:29;;;;;;;11.65;9.90;;;15.90;39.90;;;;;;5073721;28;20095;-70
2022/03/26 04:30:54;;;;;;;11.70;9.90;;;15.90;39.90;;;;;;5055911;28;20131;-70
2022/03/26 04:33:20;;;;;;;11.40;9.75;;;15.90;39.90;;;;;;5073642;28;20500;-70
2022/03/26 04:35:46;;;;;;;13.30;9.23;;;15.90;40.00;;;;;;5055840;28;20137;-65
2022/03/26 04:38:12;;;;;;;12.30;9.45;;;15.90;40.00;;;;;;5055476;28;20043;-70
2022/03/26 04:40:37;;;;;;;11.55;9.60;;;15.80;39.90;;;;;;5055692;28;20051;-70
2022/03/26 04:43:03;;;;;;;13.23;9.70;;;15.80;39.90;;;;;;5055321;28;20048;-70
2022/03/26 04:45:33;;;;;;;13.77;9.73;;;15.80;39.90;;;;;;5073123;28;20037;-70
2022/03/26 04:47:59;;;;;;;13.52;10.07;;;15.80;40.00;;;;;;5054798;28;20526;-68
2022/03/26 04:50:26;;;;;;;15.20;9.82;;;15.80;40.00;;;;;;5073312;28;20087;-65
2022/03/26 04:52:52;;;;;;;12.45;10.18;;;15.80;40.00;;;;;;5073251;28;20383;-69
2022/03/26 04:55:18;;;;;;;13.23;11.13;;;15.80;40.00;;;;;;5055551;28;20044;-66
2022/03/26 04:57:48;;;;;;;13.93;10.93;;;15.80;40.00;;;;;;5055466;28;20045;-69
2022/03/26 05:00:18;;;;;;;14.00;11.10;;;15.70;39.90;;;;;;5073111;28;20032;-70
2022/03/26 05:02:45;;;;;;;14.45;10.65;;;15.70;39.90;;;;;;5055136;28;20032;-66
2022/03/26 05:05:12;;;;;;;15.38;12.27;;;15.70;39.90;;;;;;5055281;28;20083;-65
2022/03/26 05:07:46;;;;;;;14.70;10.85;;;15.70;39.90;;;;;;5054264;28;20041;-70
2022/03/26 05:10:16;;;;;;;16.17;12.10;;;15.70;39.90;;;;;;5055459;28;20120;-70
2022/03/26 05:12:42;;;;;;;15.40;12.48;;;15.70;40.00;;;;;;5055165;28;20036;-69
2022/03/26 05:15:09;;;;;;;13.23;10.23;;;15.70;40.00;;;;;;5072767;28;20044;-65
2022/03/26 05:17:36;;;;;;;13.20;10.55;;;15.70;40.00;;;;;;5054722;28;20040;-66
2022/03/26 05:20:03;;;;;;;14.38;11.27;;;15.70;40.00;;;;;;5055106;28;20442;-65
2022/03/26 05:22:29;;;;;;;12.90;11.10;;;15.60;40.00;;;;;;5054240;28;20048;-70
2022/03/26 05:24:54;;;;;;;14.73;11.27;;;15.60;40.00;;;;;;5072662;28;20048;-66
2022/03/26 05:27:20;;;;;;;15.90;12.18;;;15.60;40.00;;;;;;5054606;28;20470;-69
2022/03/26 05:29:46;;;;;;;15.38;11.48;;;15.60;40.00;;;;;;5072697;28;20039;-70
2022/03/26 05:32:13;;;;;;;16.38;12.45;;;15.60;40.00;;;;;;5038118;28;20381;-65
2022/03/26 05:34:39;;;;;;;12.10;10.23;;;15.60;40.00;;;;;;5088263;28;20063;-69
2022/03/26 05:37:05;;;;;;;13.98;12.07;;;15.60;40.00;;;;;;5072372;28;20047;-65
2022/03/26 05:39:31;;;;;;;15.02;11.40;;;15.60;40.00;;;;;;5054612;28;20036;-70
2022/03/26 05:41:58;;;;;;;14.88;12.75;;;15.50;39.90;;;;;;5054150;28;20044;-71
2022/03/26 05:44:24;;;;;;;14.90;10.70;;;15.50;39.90;;;;;;5072240;28;20090;-69
2022/03/26 05:46:49;;;;;;;15.90;11.93;;;15.50;39.90;;;;;;5054336;28;20044;-69
2022/03/26 05:49:16;;;;;;;14.18;11.48;;;15.50;40.10;;;;;;5054202;28;20040;-70
2022/03/26 05:51:42;;;;;;;14.10;11.88;;;15.50;40.00;;;;;;5071676;28;20044;-65
2022/03/26 05:54:08;;;;;;;12.82;10.88;;;15.50;40.00;;;;;;5054449;28;20040;-68
2022/03/26 05:56:36;;;;;;;16.33;12.23;;;15.50;40.10;;;;;;5072084;28;20533;-69
2022/03/26 05:59:04;;;;;;;12.98;11.27;;;15.50;40.10;;;;;;5054217;28;20391;-70
2022/03/26 06:01:31;;;;;;;14.02;11.82;;;15.50;40.10;;;;;;5072073;28;20071;-65
2022/03/26 06:03:57;;;;;;;14.25;11.30;;;15.40;40.00;;;;;;5054066;28;20529;-70
2022/03/26 06:06:23;;;;;;;13.73;11.13;;;15.50;40.10;;;;;;5054088;28;20123;-70
2022/03/26 06:08:52;;;;;;;16.30;12.30;;;15.40;40.10;;;;;;5071906;28;20044;-71
2022/03/26 06:11:17;;;;;;;14.05;11.07;;;15.40;40.10;;;;;;5071870;28;20051;-69
2022/03/26 06:13:43;;;;;;;17.63;13.02;;;15.40;40.10;;;;;;5053923;28;20386;-65
2022/03/26 06:16:09;;;;;;;18.08;13.50;;;15.40;40.10;;;;;;5054210;28;20040;-69
2022/03/26 06:18:34;;;;;;;15.95;12.18;;;15.40;40.10;;;;;;5054034;28;20132;-69
2022/03/26 06:21:00;;;;;;;14.60;12.07;;;15.40;40.10;;;;;;5053496;28;20125;-70
2022/03/26 06:23:27;;;;;;;14.35;12.70;;;15.30;40.10;;;;;;5071478;28;20385;-69
2022/03/26 06:25:55;;;;;;;15.80;13.27;;;15.40;40.20;;;;;;5071938;28;20666;-66
2022/03/26 06:28:21;;;;;;;18.88;12.98;;;15.40;40.20;;;;;;5053979;28;20121;-70
2022/03/26 06:30:47;;;;;;;18.15;13.27;;;15.40;40.10;;;;;;5071881;28;20449;-69
2022/03/26 06:33:15;;;;;;;14.88;12.48;;;15.40;40.20;;;;;;5054498;28;20127;-69
2022/03/26 06:35:41;;;;;;;16.17;12.32;;;15.40;40.20;;;;;;5054156;28;20102;-69
2022/03/26 06:38:07;;;;;;;15.93;12.63;;;15.30;40.20;;;;;;5053858;28;20040;-72
2022/03/26 06:40:33;;;;;;;15.80;12.60;;;15.40;40.30;;;;;;5053828;28;20395;-70
2022/03/26 06:42:58;;;;;;;17.77;12.98;;;15.40;40.20;;;;;;5053546;28;20051;-69
2022/03/26 06:45:24;;;;;;;15.10;12.40;;;15.40;40.20;;;;;;5053657;28;20102;-68
2022/03/26 06:47:50;;;;;;;14.10;11.35;;;15.40;40.20;;;;;;5053845;28;20119;-69
2022/03/26 06:50:15;;;;;;;14.85;12.02;;;15.40;40.10;;;;;;5053483;28;20041;-70
2022/03/26 06:52:41;;;;;;;14.38;11.95;;;15.50;40.10;;;;;;5053733;28;20037;-69
2022/03/26 06:55:08;;;;;;;14.60;12.27;;;15.50;40.10;;;;;;5071917;28;20072;-70
2022/03/26 06:57:37;;;;;;;17.67;12.82;;;15.50;40.00;;;;;;5071515;28;20139;-66
2022/03/26 07:00:05;;;;;;;16.90;13.80;;;15.50;40.00;;;;;;5053451;28;20494;-70
2022/03/26 07:02:30;;;;;;;14.10;11.85;;;15.60;40.00;;;;;;5052843;28;20546;-67
2022/03/26 07:04:56;;;;;;;14.15;11.35;;;15.60;40.70;;;;;;5074091;28;20033;-70
2022/03/26 07:07:22;;;;;;;17.42;12.02;;;15.60;39.90;;;;;;5040781;28;20055;-70
2022/03/26 07:09:47;;;;;;;13.95;11.18;;;15.60;39.90;;;;;;5057345;28;20036;-70
2022/03/26 07:12:13;;;;;;;12.98;10.55;;;15.60;39.90;;;;;;5057369;28;20044;-65
2022/03/26 07:14:39;;;;;;;13.82;12.15;;;15.60;39.80;;;;;;5057450;28;20060;-70
2022/03/26 07:17:05;;;;;;;13.63;10.90;;;15.70;39.80;;;;;;5057390;28;20055;-65
2022/03/26 07:19:30;;;;;;;14.55;12.10;;;15.70;39.80;;;;;;5057398;28;20059;-66
2022/03/26 07:21:56;;;;;;;13.43;11.18;;;15.70;39.80;;;;;;5090330;28;20040;-70
2022/03/26 07:24:22;;;;;;;12.55;10.95;;;15.80;39.70;;;;;;5056755;28;20043;-70
2022/03/26 07:26:47;;;;;;;12.02;9.38;;;15.70;39.70;;;;;;5057152;28;20036;-68
2022/03/26 07:29:13;;;;;;;12.70;10.38;;;15.80;39.70;;;;;;5056907;28;20400;-66
2022/03/26 07:31:38;;;;;;;14.73;11.18;;;15.80;39.60;;;;;;5074752;28;20072;-72
2022/03/26 07:34:04;;;;;;;12.77;10.75;;;15.90;39.70;;;;;;5057159;28;20434;-65
2022/03/26 07:36:30;;;;;;;14.95;11.10;;;15.80;39.60;;;;;;5056711;28;20459;-70
2022/03/26 07:38:55;;;;;;;14.57;11.45;;;15.90;39.60;;;;;;5074478;28;20036;-65
2022/03/26 07:41:21;;;;;;;14.45;11.43;;;15.90;39.60;;;;;;5056609;28;20504;-70
2022/03/26 07:43:50;;;;;;;11.57;9.85;;;15.90;39.60;;;;;;5056595;28;20052;-70
2022/03/26 07:46:19;;;;;;;13.20;10.55;;;15.90;39.60;;;;;;5055911;28;20097;-67
2022/03/26 07:48:45;;;;;;;14.82;11.00;;;15.90;39.60;;;;;;5074499;28;20040;-70
2022/03/26 07:51:11;;;;;;;10.95;9.32;;;15.90;39.60;;;;;;5074446;28;20069;-70
2022/03/26 07:53:37;;;;;;;12.38;10.73;;;15.90;39.60;;;;;;5074282;28;20499;-65
2022/03/26 07:56:06;;;;;;;12.63;10.40;;;16.00;39.60;;;;;;5056448;28;20043;-65
2022/03/26 07:58:31;;;;;;;12.15;10.52;;;16.00;39.60;;;;;;5056536;28;20036;-70
2022/03/26 08:00:57;;;;;;;11.77;9.40;;;15.90;39.60;;;;;;5074305;28;20476;-70
2022/03/26 08:03:24;;;;;;;11.88;10.32;;;15.90;39.70;;;;;;5055311;28;20072;-71
2022/03/26 08:05:50;;;;;;;15.80;12.85;;;16.00;39.70;;;;;;5040418;28;20541;-66
2022/03/26 08:08:16;;;;;;;15.75;11.77;;;15.90;40.40;;;;;;5055819;28;20072;-65
2022/03/26 08:10:44;;;;;;;17.77;12.77;;;15.90;40.60;;;;;;5073974;28;20029;-66
2022/03/26 08:13:10;;;;;;;18.20;12.98;;;15.90;40.80;;;;;;5056257;28;20047;-68
2022/03/26 08:15:39;;;;;;;18.10;12.07;;;15.90;40.90;;;;;;5072782;28;20398;-70
2022/03/26 08:18:05;;;;;;;13.52;11.07;;;16.00;40.90;;;;;;5056277;28;20049;-70
2022/03/26 08:20:31;;;;;;;14.43;11.00;;;16.10;40.90;;;;;;5056127;28;20472;-71
2022/03/26 08:22:57;;;;;;;14.45;10.88;;;16.20;40.90;;;;;;5072241;28;20049;-67
2022/03/26 08:28:11;;;;;;;14.52;10.68;;;16.40;40.80;;;;;;5053119;28;20040;-70
2022/03/26 08:30:37;;;;;;;12.00;9.38;;;16.50;40.80;;;;;;5054354;28;20045;-70
2022/03/26 08:33:04;;;;;;;13.40;10.95;;;16.70;40.80;;;;;;5072595;28;20045;-72
2022/03/26 08:35:34;;;;;;;12.63;9.77;;;16.80;40.80;;;;;;5071790;28;20040;-70
2022/03/26 08:38:01;;;;;;;13.48;10.40;;;16.80;40.70;;;;;;5071734;28;20036;-73
2022/03/26 08:40:26;;;;;;;13.27;10.20;;;16.90;40.60;;;;;;5071134;28;20043;-66
2022/03/26 08:42:52;;;;;;;16.15;10.35;;;17.00;40.60;;;;;;5053748;28;20033;-70
2022/03/26 08:45:19;;;;;;;14.85;10.27;;;17.10;40.50;;;;;;5054674;28;20123;-70
2022/03/26 08:47:45;;;;;;;13.25;10.35;;;17.10;41.10;;;;;;5053977;28;20108;-72
2022/03/26 08:50:11;;;;;;;15.30;10.05;;;17.20;40.30;;;;;;5054631;28;20392;-65
2022/03/26 08:52:37;;;;;;;12.13;10.40;;;17.30;40.20;;;;;;5053184;28;20052;-66
2022/03/26 08:55:04;;;;;;;13.77;10.00;;;17.30;40.10;;;;;;5087859;28;20040;-66
2022/03/26 08:57:30;;;;;;;13.02;9.02;;;17.30;40.00;;;;;;5054310;28;20055;-71
2022/03/26 08:59:56;;;;;;;12.88;9.52;;;17.40;40.00;;;;;;5054704;28;20041;-65
2022/03/26 09:02:22;;;;;;;11.98;8.95;;;17.40;39.90;;;;;;5053806;28;20041;-71
2022/03/26 09:04:47;;;;;;;13.13;10.20;;;17.40;39.90;;;;;;5054091;28;20476;-71
2022/03/26 09:07:13;;;;;;;11.35;8.80;;;17.40;39.80;;;;;;5088698;28;20153;-75
2022/03/26 09:09:39;;;;;;;13.25;8.95;;;17.50;39.90;;;;;;5074833;28;20067;-75
2022/03/26 09:12:05;;;;;;;12.75;10.07;;;17.50;39.90;;;;;;5060842;28;20443;-68
2022/03/26 09:14:31;;;;;;;16.15;9.57;;;17.50;40.70;;;;;;5072838;28;20443;-72
2022/03/26 09:16:56;;;;;;;14.80;8.88;;;17.50;40.00;;;;;;5053313;28;20048;-66
2022/03/26 09:19:22;;;;;;;13.82;9.02;;;17.60;40.00;;;;;;5054209;28;20239;-67
2022/03/26 09:21:49;;;;;;;13.00;8.82;;;17.60;40.00;;;;;;5052759;28;20044;-72
2022/03/26 09:24:16;;;;;;;14.55;8.27;;;17.60;39.90;;;;;;5054192;28;20063;-72
2022/03/26 09:26:42;;;;;;;11.80;9.10;;;17.60;39.80;;;;;;5047980;28;20070;-72
2022/03/26 09:29:08;;;;;;;11.45;9.00;;;17.60;39.80;;;;;;5054315;28;20396;-70
2022/03/26 09:31:33;;;;;;;13.70;9.38;;;17.60;39.70;;;;;;5054097;28;20045;-68
2022/03/26 09:33:59;;;;;;;10.32;8.10;;;17.60;39.70;;;;;;5054450;28;20047;-66
2022/03/26 09:36:25;;;;;;;11.13;8.55;;;17.60;39.70;;;;;;5067504;28;20089;-67
2022/03/26 09:38:50;;;;;;;11.35;8.30;;;17.60;39.70;;;;;;5046805;28;20072;-67
2022/03/26 09:41:16;;;;;;;10.82;8.27;;;17.60;39.70;;;;;;5053564;28;20040;-66
2022/03/26 09:43:43;;;;;;;12.85;8.10;;;17.60;39.70;;;;;;5046749;28;20479;-67
2022/03/26 09:46:10;;;;;;;12.73;9.00;;;17.60;39.80;;;;;;5057867;28;20032;-72
2022/03/26 09:48:37;;;;;;;14.98;8.82;;;17.60;39.90;;;;;;5058512;28;20396;-67
2022/03/26 09:51:04;;;;;;;10.82;8.55;;;17.60;39.90;;;;;;5053112;28;20683;-68
2022/03/26 09:53:30;;;;;;;10.50;7.63;;;17.60;40.00;;;;;;5052578;28;20403;-67
2022/03/26 09:55:57;;;;;;;11.38;8.23;;;17.70;40.00;;;;;;5054085;28;20476;-70
2022/03/26 09:58:23;;;;;;;15.05;7.97;;;17.70;40.00;;;;;;5053537;28;20123;-73
2022/03/26 10:00:53;;;;;;;13.95;7.88;;;17.80;40.10;;;;;;5071416;28;20040;-72
2022/03/26 10:03:19;;;;;;;12.45;7.75;;;17.80;40.00;;;;;;5053865;28;20123;-72
2022/03/26 10:05:46;;;;;;;9.90;7.63;;;17.80;39.90;;;;;;5053369;28;20032;-67
2022/03/26 10:10:54;;;;;;;11.85;6.50;;;18.00;39.70;;;;;;5137911;27;1395054;-68
2022/03/26 10:16:15;;;;;;;9.00;6.97;;;18.00;39.50;;;;;;5088541;28;20393;-66
2022/03/26 10:18:43;;;;;;;8.75;6.05;;;18.10;39.30;;;;;;5076244;28;20039;-67
2022/03/26 10:23:54;;;;;;;10.68;6.65;;;18.20;39.00;;;;;;5109362;27;21021;-69
2022/03/26 10:26:22;;;;;;;7.30;6.13;;;18.30;38.90;;;;;;5105489;28;20073;-66
2022/03/26 10:28:56;;;;;;;9.40;7.57;;;18.30;39.00;;;;;;5108243;28;20515;-69
2022/03/26 10:34:14;;;;;;;7.95;6.18;;;18.40;39.80;;;;;;5087450;28;20109;-70
2022/03/26 10:36:44;;;;;;;8.00;5.68;;;18.50;39.00;;;;;;5090027;28;20439;-68
2022/03/26 10:39:21;;;;;;;7.32;5.32;;;18.50;39.00;;;;;;5094005;28;20044;-68
2022/03/26 10:41:54;;;;;;;10.50;5.82;;;18.60;38.90;;;;;;5104891;28;20442;-67
2022/03/26 10:44:27;;;;;;;6.13;4.72;;;18.60;38.80;;;;;;5104937;28;20040;-68
2022/03/26 10:49:33;;;;;;;7.65;5.20;;;18.60;38.70;;;;;;5135478;27;1166163;-69
2022/03/26 10:52:17;;;;;;;6.07;5.30;;;18.60;38.60;;;;;;5152512;27;20641;-68
2022/03/26 10:54:43;;;;;;;8.65;5.53;;;18.60;38.80;;;;;;5151940;27;20038;-68
2022/03/26 10:57:10;;;;;;;10.27;4.82;;;18.60;38.80;;;;;;5153096;27;20106;-69
2022/03/26 10:59:38;;;;;;;9.70;5.55;;;18.60;39.00;;;;;;5152114;27;20039;-67
2022/03/26 11:02:04;;;;;;;6.68;5.32;;;18.60;39.10;;;;;;5153501;27;20473;-68
2022/03/26 11:04:30;;;;;;;7.63;5.55;;;18.60;39.30;;;;;;5172032;27;20066;-66
2022/03/26 11:06:57;;;;;;;6.93;5.10;;;18.60;39.40;;;;;;5153076;27;20030;-69
2022/03/26 11:09:24;;;;;;;7.95;4.85;;;18.60;39.40;;;;;;5171167;27;20034;-69
2022/03/26 11:11:51;;;;;;;5.22;4.72;;;18.60;39.60;;;;;;5152264;27;20117;-69
2022/03/26 11:14:22;;;;;;;7.38;4.43;;;18.70;39.70;;;;;;5151062;27;20490;-67
2022/03/26 11:17:27;;;;;;;6.68;4.40;;;18.70;39.70;;;;;;5149191;27;20038;-68
2022/03/26 11:20:27;;;;;;;5.35;4.85;;;18.70;39.80;;;;;;5131532;27;20078;-72
2022/03/26 11:34:20;;;;;;;9.68;4.85;;;18.60;40.20;;;;;;5088580;27;20784;-74
2022/03/26 11:36:49;;;;;;;7.60;4.25;;;18.60;40.30;;;;;;5088178;28;20048;-68
2022/03/26 11:39:17;;;;;;;4.78;3.67;;;18.60;40.40;;;;;;5088177;28;20101;-69
2022/03/26 11:41:44;;;;;;;4.60;3.53;;;18.60;40.20;;;;;;5087704;28;20036;-79
2022/03/26 11:44:11;;;;;;;10.43;3.63;;;18.60;40.30;;;;;;5087698;28;20044;-75
2022/03/26 11:57:46;;;;;;;4.78;3.90;;;18.60;40.70;;;;;;5088799;28;20356;-67
2022/03/26 12:00:17;;;;;;;5.25;3.92;;;18.60;40.80;;;;;;5088019;28;20105;-69
2022/03/26 12:03:01;;;;;;;8.85;3.45;;;18.60;40.90;;;;;;5087790;28;20093;-70
2022/03/26 12:08:35;;;;;;;5.63;3.33;;;18.70;41.10;;;;;;5086572;28;20048;-72
2022/03/26 12:11:04;;;;;;;4.72;3.55;;;18.70;41.20;;;;;;5086616;28;20048;-71
2022/03/26 12:13:34;;;;;;;7.90;3.75;;;18.70;41.20;;;;;;5087612;28;20392;-71
2022/03/26 12:16:03;;;;;;;5.93;3.20;;;18.70;41.20;;;;;;5087744;28;20123;-70
2022/03/26 12:24:00;;;;;;;3.45;3.15;;;18.70;41.40;;;;;;5130265;27;20371;-67
2022/03/26 12:26:25;;;;;;;3.40;2.60;;;18.70;41.40;;;;;;5129137;28;20043;-69
2022/03/26 12:28:51;;;;;;;3.47;2.95;;;18.70;41.20;;;;;;5128764;28;20440;-70
2022/03/26 12:31:19;;;;;;;4.00;2.83;;;18.80;41.20;;;;;;5124593;28;20039;-69
2022/03/26 12:33:47;;;;;;;5.53;3.08;;;18.70;41.10;;;;;;5116362;28;20046;-68
2022/03/26 12:36:15;;;;;;;4.85;3.00;;;18.80;41.10;;;;;;5114885;28;20055;-68
2022/03/26 12:38:46;;;;;;;3.42;2.25;;;18.80;41.10;;;;;;5108045;28;20040;-70
2022/03/26 12:41:14;;;;;;;3.35;3.05;;;18.80;41.10;;;;;;5115124;28;20482;-72
2022/03/26 12:43:40;;;;;;;3.95;2.75;;;18.80;41.10;;;;;;5115888;28;20039;-68
2022/03/26 12:46:10;;;;;;;3.63;2.55;;;18.80;41.00;;;;;;5110566;28;20040;-69
2022/03/26 12:48:35;;;;;;;3.50;2.92;;;18.80;41.00;;;;;;5120891;28;20111;-71
2022/03/26 12:51:06;;;;;;;3.08;2.78;;;18.80;41.00;;;;;;5128389;28;20127;-71
2022/03/26 12:53:40;;;;;;;4.28;2.45;;;18.80;41.00;;;;;;5128184;28;20055;-69
2022/03/26 12:56:11;;;;;;;2.85;2.40;;;18.80;40.90;;;;;;5129645;27;20099;-69
2022/03/26 12:59:08;;;;;;;3.65;2.50;;;18.80;40.90;;;;;;5122762;28;20054;-69
2022/03/26 13:01:24;;;;;;;3.35;2.33;;;18.80;40.90;;;;;;5108880;28;20085;-68
2022/03/26 13:03:51;;;;;;;2.50;2.20;;;18.80;41.00;;;;;;5110677;28;20044;-71
2022/03/26 13:06:18;;;;;;;3.25;2.25;;;18.80;41.00;;;;;;5127969;28;20044;-67
2022/03/26 13:08:54;;;;;;;4.28;2.35;;;18.80;41.00;;;;;;5145367;27;20067;-71
2022/03/26 13:11:25;;;;;;;2.83;1.80;;;18.80;41.10;;;;;;5128245;27;20039;-71
2022/03/26 13:13:54;;;;;;;4.35;2.70;;;18.80;41.20;;;;;;5111794;28;20043;-69
2022/03/26 13:16:24;;;;;;;6.40;2.30;;;18.80;41.40;;;;;;5122395;28;20043;-70
2022/03/26 13:19:07;;;;;;;2.97;1.90;;;18.90;41.60;;;;;;5110192;28;20044;-74
2022/03/26 13:21:35;;;;;;;3.00;2.15;;;18.90;41.70;;;;;;5119177;28;20042;-69
2022/03/26 13:24:07;;;;;;;2.80;2.25;;;18.90;41.80;;;;;;5118774;28;20054;-71